Time,TemperatureF,DewpointF,PressureIn,WindDirection,WindDirectionDegrees,WindSpeedMPH,WindSpeedGustMPH,Humidity,HourlyPrecipIn,Conditions,Clouds,dailyrainin,SoftwareType,DateUTC
2013-01-24 00:08:00,18.7,4.8,30.43,WNW,288,0.0,0.0,54,0.00,,,0.00,Wunderground v.1.15,2013-01-24 06:08:00,
2013-01-24 00:18:00,18.4,4.5,30.44,NW,314,0.0,0.0,54,0.00,,,0.00,Wunderground v.1.15,2013-01-24 06:18:00,
2013-01-24 00:23:00,18.2,4.7,30.45,NW,306,0.0,0.0,55,0.00,,,0.00,Wunderground v.1.15,2013-01-24 06:23:00,
2013-01-24 00:33:00,18.1,4.6,30.45,WNW,299,0.0,0.0,55,0.00,,,0.00,Wunderground v.1.15,2013-01-24 06:33:00,
2013-01-24 00:48:00,17.9,4.8,30.47,NW,315,0.0,0.0,56,0.00,,,0.00,Wunderground v.1.15,2013-01-24 06:48:00,
2013-01-24 00:53:00,17.9,4.8,30.48,NW,311,0.0,0.0,56,0.00,,,0.00,Wunderground v.1.15,2013-01-24 06:53:00,
2013-01-24 01:03:00,17.7,5.4,30.48,North,355,0.0,0.0,58,0.00,,,0.00,Wunderground v.1.15,2013-01-24 07:03:00,
2013-01-24 01:13:00,17.7,6.5,30.48,NW,317,0.0,0.0,61,0.00,,,0.00,Wunderground v.1.15,2013-01-24 07:13:00,
2013-01-24 01:23:00,17.4,4.4,30.49,NW,310,0.0,0.0,56,0.00,,,0.00,Wunderground v.1.15,2013-01-24 07:23:00,
2013-01-24 01:38:00,16.9,0.6,30.50,West,277,0.0,0.0,48,0.00,,,0.00,Wunderground v.1.15,2013-01-24 07:38:00,
2013-01-24 01:44:00,16.8,0.0,30.50,NW,309,0.0,0.0,47,0.00,,,0.00,Wunderground v.1.15,2013-01-24 07:44:00,
2013-01-24 01:58:00,16.3,0.9,30.51,NNW,335,0.0,0.0,50,0.00,,,0.00,Wunderground v.1.15,2013-01-24 07:58:00,
2013-01-24 02:08:00,15.8,1.3,30.52,NNW,344,0.0,0.0,52,0.00,,,0.00,Wunderground v.1.15,2013-01-24 08:08:00,
2013-01-24 02:13:00,15.6,1.1,30.53,NNW,331,0.0,0.0,52,0.00,,,0.00,Wunderground v.1.15,2013-01-24 08:13:00,
2013-01-24 02:23:00,15.3,0.8,30.53,NW,325,0.0,0.0,52,0.00,,,0.00,Wunderground v.1.15,2013-01-24 08:23:00,
2013-01-24 02:38:00,14.8,0.3,30.54,NNW,336,0.0,0.0,52,0.00,,,0.00,Wunderground v.1.15,2013-01-24 08:38:00,
2013-01-24 02:48:00,14.4,0.0,30.54,NNW,334,0.0,0.0,52,0.00,,,0.00,Wunderground v.1.15,2013-01-24 08:48:00,
2013-01-24 02:58:00,14.3,-1.0,30.55,NNW,341,0.0,0.0,50,0.00,,,0.00,Wunderground v.1.15,2013-01-24 08:58:00,
2013-01-24 03:03:00,14.3,-1.0,30.55,NNW,338,0.0,0.0,50,0.00,,,0.00,Wunderground v.1.15,2013-01-24 09:03:00,
2013-01-24 03:18:00,14.1,-2.5,30.56,NNW,332,0.0,0.0,47,0.00,,,0.00,Wunderground v.1.15,2013-01-24 09:18:00,
2013-01-24 03:28:00,13.7,-2.4,30.55,NNW,330,0.0,0.0,48,0.00,,,0.00,Wunderground v.1.15,2013-01-24 09:28:00,
2013-01-24 03:38:00,13.6,-1.2,30.56,NNW,346,0.0,0.0,51,0.00,,,0.00,Wunderground v.1.15,2013-01-24 09:38:00,
2013-01-24 03:48:00,13.2,-1.2,30.57,WNW,298,0.0,0.0,52,0.00,,,0.00,Wunderground v.1.15,2013-01-24 09:48:00,
2013-01-24 03:58:00,12.9,-1.4,30.58,NW,317,0.0,0.0,52,0.00,,,0.00,Wunderground v.1.15,2013-01-24 09:58:00,
2013-01-24 04:03:00,12.9,-1.4,30.58,NW,319,0.0,0.0,52,0.00,,,0.00,Wunderground v.1.15,2013-01-24 10:03:00,
2013-01-24 04:18:00,12.7,-2.5,30.58,NW,324,0.0,0.0,50,0.00,,,0.00,Wunderground v.1.15,2013-01-24 10:18:00,
2013-01-24 04:23:00,12.7,-2.5,30.58,NNW,346,0.0,0.0,50,0.00,,,0.00,Wunderground v.1.15,2013-01-24 10:23:00,
2013-01-24 04:33:00,12.5,-3.1,30.58,NNW,343,0.0,0.0,49,0.00,,,0.00,Wunderground v.1.15,2013-01-24 10:33:00,
2013-01-24 04:43:00,12.5,-2.6,30.60,NNW,343,0.0,0.0,50,0.00,,,0.00,Wunderground v.1.15,2013-01-24 10:43:00,
2013-01-24 04:53:00,12.2,-1.7,30.61,NW,307,0.0,0.0,53,0.00,,,0.00,Wunderground v.1.15,2013-01-24 10:53:00,
2013-01-24 05:03:00,11.9,-2.0,30.61,North,5,0.0,0.0,53,0.00,,,0.00,Wunderground v.1.15,2013-01-24 11:03:00,
2013-01-24 05:13:00,11.7,-1.8,30.62,NNW,338,0.0,0.0,54,0.00,,,0.00,Wunderground v.1.15,2013-01-24 11:13:00,
2013-01-24 05:24:00,11.7,-1.8,30.61,North,351,0.0,0.0,54,0.00,,,0.00,Wunderground v.1.15,2013-01-24 11:24:00,
2013-01-24 05:38:00,11.7,-2.2,30.63,North,355,0.0,0.0,53,0.00,,,0.00,Wunderground v.1.15,2013-01-24 11:38:00,
2013-01-24 05:48:00,11.5,-2.3,30.63,NNW,331,0.0,0.0,53,0.00,,,0.00,Wunderground v.1.15,2013-01-24 11:48:00,
2013-01-24 05:53:00,11.3,-2.1,30.63,NNW,346,0.0,0.0,54,0.00,,,0.00,Wunderground v.1.15,2013-01-24 11:53:00,
2013-01-24 06:03:00,11.3,-2.1,30.64,NW,318,0.0,0.0,54,0.00,,,0.00,Wunderground v.1.15,2013-01-24 12:03:00,
2013-01-24 06:14:00,11.3,-1.8,30.62,NNW,331,0.0,0.0,55,0.00,,,0.00,Wunderground v.1.15,2013-01-24 12:14:00,
2013-01-24 06:23:00,11.3,-2.1,30.64,NW,325,0.0,0.0,54,0.00,,,0.00,Wunderground v.1.15,2013-01-24 12:23:00,
2013-01-24 06:33:00,11.3,-2.1,30.63,NNW,337,0.0,0.0,54,0.00,,,0.00,Wunderground v.1.15,2013-01-24 12:33:00,
2013-01-24 06:48:00,11.2,-4.3,30.64,North,5,0.0,0.0,49,0.00,,,0.00,Wunderground v.1.15,2013-01-24 12:48:00,
2013-01-24 06:54:00,11.0,-5.3,30.64,NNE,19,0.0,0.0,47,0.00,,,0.00,Wunderground v.1.15,2013-01-24 12:54:00,
2013-01-24 07:03:00,10.8,-6.0,30.65,North,350,0.0,0.0,46,0.00,,,0.00,Wunderground v.1.15,2013-01-24 13:03:00,
2013-01-24 07:18:00,10.6,-6.1,30.65,NNE,14,0.0,0.0,46,0.00,,,0.00,Wunderground v.1.15,2013-01-24 13:18:00,
2013-01-24 07:23:00,10.6,-5.7,30.65,NNE,20,0.0,0.0,47,0.00,,,0.00,Wunderground v.1.15,2013-01-24 13:23:00,
2013-01-24 07:38:00,10.8,-4.6,30.67,NNW,348,0.0,0.0,49,0.00,,,0.00,Wunderground v.1.15,2013-01-24 13:38:00,
2013-01-24 07:43:00,11.0,-4.5,30.65,NW,313,0.0,0.0,49,0.00,,,0.00,Wunderground v.1.15,2013-01-24 13:43:00,
2013-01-24 07:53:00,11.2,-4.3,30.66,NNW,332,0.0,0.0,49,0.00,,,0.00,Wunderground v.1.15,2013-01-24 13:53:00,
2013-01-24 08:03:00,11.3,-3.3,30.65,NW,322,0.0,0.0,51,0.00,,,0.00,Wunderground v.1.15,2013-01-24 14:03:00,
2013-01-24 08:13:00,12.0,-3.5,30.66,North,355,0.0,0.0,49,0.00,,,0.00,Wunderground v.1.15,2013-01-24 14:13:00,
2013-01-24 08:23:00,12.2,-4.2,30.67,NNE,17,0.0,0.0,47,0.00,,,0.00,Wunderground v.1.15,2013-01-24 14:23:00,
2013-01-24 08:38:00,12.5,-4.4,30.68,NNE,17,0.0,0.0,46,0.00,,,0.00,Wunderground v.1.15,2013-01-24 14:38:00,
2013-01-24 08:43:00,12.5,-4.9,30.69,NNW,339,0.0,0.0,45,0.00,,,0.00,Wunderground v.1.15,2013-01-24 14:43:00,
2013-01-24 08:54:00,12.4,-4.9,30.70,NNE,12,0.0,0.0,45,0.00,,,0.00,Wunderground v.1.15,2013-01-24 14:54:00,
2013-01-24 09:08:00,13.4,-3.6,30.71,NNE,32,0.0,0.0,46,0.00,,,0.00,Wunderground v.1.15,2013-01-24 15:08:00,
2013-01-24 09:13:00,13.6,-3.4,30.70,NNE,12,0.0,0.0,46,0.00,,,0.00,Wunderground v.1.15,2013-01-24 15:13:00,
2013-01-24 09:28:00,14.1,-2.5,30.70,NNE,28,0.0,0.0,47,0.00,,,0.00,Wunderground v.1.15,2013-01-24 15:28:00,
2013-01-24 09:38:00,14.9,-1.7,30.69,NNE,26,0.0,0.0,47,0.00,,,0.00,Wunderground v.1.15,2013-01-24 15:38:00,
2013-01-24 09:44:00,15.5,-2.1,30.69,North,5,0.0,0.0,45,0.00,,,0.00,Wunderground v.1.15,2013-01-24 15:44:00,
2013-01-24 09:58:00,16.1,-1.5,30.70,NNE,21,0.0,0.0,45,0.00,,,0.00,Wunderground v.1.15,2013-01-24 15:58:00,
2013-01-24 10:03:00,16.8,-1.4,30.69,NNE,33,0.0,0.0,44,0.00,,,0.00,Wunderground v.1.15,2013-01-24 16:03:00,
2013-01-24 10:13:00,17.6,-1.1,30.69,NNE,19,0.0,0.0,43,0.00,,,0.00,Wunderground v.1.15,2013-01-24 16:13:00,
2013-01-24 10:23:00,17.9,-1.4,30.69,North,355,0.0,0.0,42,0.00,,,0.00,Wunderground v.1.15,2013-01-24 16:23:00,
2013-01-24 10:33:00,18.9,-0.5,30.68,NE,42,0.0,0.0,42,0.00,,,0.00,Wunderground v.1.15,2013-01-24 16:33:00,
2013-01-24 10:43:00,19.5,-0.9,30.68,NE,44,0.0,0.0,40,0.00,,,0.00,Wunderground v.1.15,2013-01-24 16:43:00,
2013-01-24 10:53:00,19.7,-1.3,30.68,North,5,0.0,0.0,39,0.00,,,0.00,Wunderground v.1.15,2013-01-24 16:53:00,
2013-01-24 11:08:00,20.3,-0.8,30.69,North,355,0.0,0.0,39,0.00,,,0.00,Wunderground v.1.15,2013-01-24 17:08:00,
2013-01-24 11:18:00,21.4,0.8,30.68,NE,41,0.0,0.0,40,0.00,,,0.00,Wunderground v.1.15,2013-01-24 17:18:00,
2013-01-24 11:28:00,22.0,-0.3,30.67,ENE,64,0.0,0.0,37,0.00,,,0.00,Wunderground v.1.15,2013-01-24 17:28:00,
2013-01-24 11:33:00,22.2,-0.2,30.67,NE,49,0.0,0.0,37,0.00,,,0.00,Wunderground v.1.15,2013-01-24 17:33:00,
2013-01-24 11:43:00,22.6,0.2,30.66,ENE,66,0.0,0.0,37,0.00,,,0.00,Wunderground v.1.15,2013-01-24 17:43:00,
2013-01-24 11:54:00,23.0,0.0,30.66,ENE,57,0.0,0.0,36,0.00,,,0.00,Wunderground v.1.15,2013-01-24 17:54:00,
2013-01-24 12:03:00,24.1,1.0,30.65,ENE,63,0.0,0.0,36,0.00,,,0.00,Wunderground v.1.15,2013-01-24 18:03:00,
2013-01-24 12:13:00,24.2,0.4,30.65,East,82,0.0,0.0,35,0.00,,,0.00,Wunderground v.1.15,2013-01-24 18:13:00,
2013-01-24 12:23:00,24.5,1.3,30.65,East,92,0.0,0.0,36,0.00,,,0.00,Wunderground v.1.15,2013-01-24 18:23:00,
2013-01-24 12:38:00,24.9,1.7,30.64,East,85,0.0,0.0,36,0.00,,,0.00,Wunderground v.1.15,2013-01-24 18:38:00,
2013-01-24 12:43:00,25.0,0.5,30.64,ENE,71,0.0,0.0,34,0.00,,,0.00,Wunderground v.1.15,2013-01-24 18:43:00,
2013-01-24 12:58:00,25.2,0.7,30.64,ESE,111,0.0,0.0,34,0.00,,,0.00,Wunderground v.1.15,2013-01-24 18:58:00,
2013-01-24 13:08:00,26.2,2.2,30.63,East,96,0.0,0.0,35,0.00,,,0.00,Wunderground v.1.15,2013-01-24 19:08:00,
2013-01-24 13:13:00,26.4,1.8,30.62,ENE,69,0.0,0.0,34,0.00,,,0.00,Wunderground v.1.15,2013-01-24 19:13:00,
2013-01-24 13:23:00,25.9,2.6,30.61,ESE,104,0.0,0.0,36,0.00,,,0.00,Wunderground v.1.15,2013-01-24 19:23:00,
2013-01-24 13:33:00,25.8,3.1,30.60,ENE,73,0.0,0.0,37,0.00,,,0.00,Wunderground v.1.15,2013-01-24 19:33:00,
2013-01-24 13:43:00,25.9,2.0,30.60,ENE,76,0.0,0.0,35,0.00,,,0.00,Wunderground v.1.15,2013-01-24 19:43:00,
2013-01-24 13:53:00,25.8,3.1,30.59,East,95,0.0,0.0,37,0.00,,,0.00,Wunderground v.1.15,2013-01-24 19:53:00,
2013-01-24 14:08:00,26.5,3.7,30.59,East,79,0.0,0.0,37,0.00,,,0.00,Wunderground v.1.15,2013-01-24 20:08:00,
2013-01-24 14:14:00,26.4,3.0,30.59,ESE,104,0.0,0.0,36,0.00,,,0.00,Wunderground v.1.15,2013-01-24 20:14:00,
2013-01-24 14:23:00,26.5,3.7,30.59,ENE,65,0.0,0.0,37,0.00,,,0.00,Wunderground v.1.15,2013-01-24 20:23:00,
2013-01-24 14:33:00,26.4,4.8,30.58,ENE,73,0.0,0.0,39,0.00,,,0.00,Wunderground v.1.15,2013-01-24 20:33:00,
2013-01-24 14:48:00,25.9,4.3,30.58,ENE,73,0.0,0.0,39,0.00,,,0.00,Wunderground v.1.15,2013-01-24 20:48:00,
2013-01-24 14:58:00,26.2,5.1,30.57,East,86,0.0,0.0,40,0.00,,,0.00,Wunderground v.1.15,2013-01-24 20:58:00,
2013-01-24 15:03:00,26.2,5.1,30.57,ESE,111,0.0,0.0,40,0.00,,,0.00,Wunderground v.1.15,2013-01-24 21:03:00,
2013-01-24 15:13:00,26.4,5.8,30.57,East,82,0.0,0.0,41,0.00,,,0.00,Wunderground v.1.15,2013-01-24 21:13:00,
2013-01-24 15:28:00,26.4,5.8,30.55,East,86,0.0,0.0,41,0.00,,,0.00,Wunderground v.1.15,2013-01-24 21:28:00,
2013-01-24 15:33:00,26.4,5.8,30.55,East,88,0.0,0.0,41,0.00,,,0.00,Wunderground v.1.15,2013-01-24 21:33:00,
2013-01-24 15:48:00,25.9,5.9,30.53,East,83,0.0,0.0,42,0.00,,,0.00,Wunderground v.1.15,2013-01-24 21:48:00,
2013-01-24 15:58:00,25.8,5.8,30.54,ENE,74,0.0,0.0,42,0.00,,,0.00,Wunderground v.1.15,2013-01-24 21:58:00,
2013-01-24 16:03:00,25.6,6.2,30.54,East,92,0.0,0.0,43,0.00,,,0.00,Wunderground v.1.15,2013-01-24 22:03:00,
2013-01-24 16:13:00,25.5,6.1,30.55,East,92,0.0,0.0,43,0.00,,,0.00,Wunderground v.1.15,2013-01-24 22:13:00,
2013-01-24 16:23:00,25.5,6.1,30.55,East,80,0.0,0.0,43,0.00,,,0.00,Wunderground v.1.15,2013-01-24 22:23:00,
2013-01-24 16:33:00,25.3,5.9,30.53,East,101,0.0,0.0,43,0.00,,,0.00,Wunderground v.1.15,2013-01-24 22:33:00,
2013-01-24 16:48:00,25.2,6.3,30.54,East,87,0.0,0.0,44,0.00,,,0.00,Wunderground v.1.15,2013-01-24 22:48:00,
2013-01-24 16:53:00,25.0,6.1,30.53,East,99,0.0,0.0,44,0.00,,,0.00,Wunderground v.1.15,2013-01-24 22:53:00,
2013-01-24 17:03:00,24.9,6.5,30.53,ENE,78,0.0,0.0,45,0.00,,,0.00,Wunderground v.1.15,2013-01-24 23:03:00,
2013-01-24 17:13:00,24.7,6.8,30.52,East,96,0.0,0.0,46,0.00,,,0.00,Wunderground v.1.15,2013-01-24 23:13:00,
2013-01-24 17:28:00,24.9,6.5,30.52,East,90,0.0,0.0,45,0.00,,,0.00,Wunderground v.1.15,2013-01-24 23:28:00,
2013-01-24 17:33:00,24.9,6.5,30.51,East,90,0.0,0.0,45,0.00,,,0.00,Wunderground v.1.15,2013-01-24 23:33:00,
2013-01-24 17:44:00,24.5,6.2,30.52,East,93,0.0,0.0,45,0.00,,,0.00,Wunderground v.1.15,2013-01-24 23:44:00,
2013-01-24 17:58:00,24.2,6.4,30.51,East,90,0.0,0.0,46,0.00,,,0.00,Wunderground v.1.15,2013-01-24 23:58:00,
2013-01-24 18:03:00,24.2,6.4,30.50,East,90,0.0,0.0,46,0.00,,,0.00,Wunderground v.1.15,2013-01-25 00:03:00,
2013-01-24 18:13:00,24.2,5.9,30.50,East,88,0.0,0.0,45,0.00,,,0.00,Wunderground v.1.15,2013-01-25 00:13:00,
2013-01-24 18:28:00,24.1,5.8,30.50,East,96,0.0,0.0,45,0.00,,,0.00,Wunderground v.1.15,2013-01-25 00:28:00,
2013-01-24 18:33:00,24.1,5.8,30.50,East,94,0.0,0.0,45,0.00,,,0.00,Wunderground v.1.15,2013-01-25 00:33:00,
2013-01-24 18:43:00,24.1,5.3,30.50,East,97,0.0,0.0,44,0.00,,,0.00,Wunderground v.1.15,2013-01-25 00:43:00,
2013-01-24 18:53:00,24.1,5.8,30.50,East,91,0.0,0.0,45,0.00,,,0.00,Wunderground v.1.15,2013-01-25 00:53:00,
2013-01-24 19:03:00,24.2,6.4,30.48,East,92,0.0,0.0,46,0.00,,,0.00,Wunderground v.1.15,2013-01-25 01:03:00,
2013-01-24 19:18:00,24.4,5.6,30.48,East,94,0.0,0.0,44,0.00,,,0.00,Wunderground v.1.15,2013-01-25 01:18:00,
2013-01-24 19:23:00,24.5,5.7,30.48,ESE,107,0.0,0.0,44,0.00,,,0.00,Wunderground v.1.15,2013-01-25 01:23:00,
2013-01-24 19:33:00,24.4,5.6,30.47,East,91,0.0,0.0,44,0.00,,,0.00,Wunderground v.1.15,2013-01-25 01:33:00,
2013-01-24 19:48:00,24.2,5.9,30.48,ESE,109,0.0,0.0,45,0.00,,,0.00,Wunderground v.1.15,2013-01-25 01:48:00,
2013-01-24 19:58:00,24.2,6.4,30.47,East,95,0.0,0.0,46,0.00,,,0.00,Wunderground v.1.15,2013-01-25 01:58:00,
2013-01-24 20:08:00,24.2,5.9,30.47,East,97,0.0,0.0,45,0.00,,,0.00,Wunderground v.1.15,2013-01-25 02:08:00,
2013-01-24 20:18:00,24.4,6.1,30.47,ESE,111,0.0,0.0,45,0.00,,,0.00,Wunderground v.1.15,2013-01-25 02:18:00,
2013-01-24 20:28:00,24.4,6.6,30.46,East,87,0.0,0.0,46,0.00,,,0.00,Wunderground v.1.15,2013-01-25 02:28:00,
2013-01-24 20:34:00,24.4,6.1,30.46,East,98,0.0,0.0,45,0.00,,,0.00,Wunderground v.1.15,2013-01-25 02:34:00,
2013-01-24 20:43:00,24.4,6.1,30.45,ESE,106,0.0,0.0,45,0.00,,,0.00,Wunderground v.1.15,2013-01-25 02:43:00,
2013-01-24 20:53:00,24.4,5.6,30.44,East,100,0.0,0.0,44,0.00,,,0.00,Wunderground v.1.15,2013-01-25 02:53:00,
2013-01-24 21:03:00,24.5,5.7,30.40,ESE,110,0.0,0.0,44,0.00,,,0.00,Wunderground v.1.15,2013-01-25 03:03:00,
2013-01-24 21:13:00,24.5,5.7,30.41,East,98,0.0,0.0,44,0.00,,,0.00,Wunderground v.1.15,2013-01-25 03:13:00,
2013-01-24 21:23:00,24.7,5.3,30.41,East,85,0.0,0.0,43,0.00,,,0.00,Wunderground v.1.15,2013-01-25 03:23:00,
2013-01-24 21:33:00,24.5,5.7,30.40,East,98,0.0,0.0,44,0.00,,,0.00,Wunderground v.1.15,2013-01-25 03:33:00,
2013-01-24 21:48:00,24.7,5.3,30.42,East,90,0.0,0.0,43,0.00,,,0.00,Wunderground v.1.15,2013-01-25 03:48:00,
2013-01-24 21:58:00,24.7,5.3,30.42,East,84,0.0,0.0,43,0.00,,,0.00,Wunderground v.1.15,2013-01-25 03:58:00,
2013-01-24 22:03:00,24.7,5.3,30.42,East,97,0.0,0.0,43,0.00,,,0.00,Wunderground v.1.15,2013-01-25 04:03:00,
2013-01-24 22:13:00,24.7,5.3,30.42,East,86,0.0,0.0,43,0.00,,,0.00,Wunderground v.1.15,2013-01-25 04:13:00,
2013-01-24 22:23:00,24.5,5.2,30.43,East,84,0.0,0.0,43,0.00,,,0.00,Wunderground v.1.15,2013-01-25 04:23:00,
2013-01-24 22:33:00,24.5,5.7,30.44,East,97,0.0,0.0,44,0.00,,,0.00,Wunderground v.1.15,2013-01-25 04:33:00,
2013-01-24 22:48:00,24.4,5.6,30.42,East,94,0.0,0.0,44,0.00,,,0.00,Wunderground v.1.15,2013-01-25 04:48:00,
2013-01-24 22:58:00,24.4,6.1,30.40,East,94,0.0,0.0,45,0.00,,,0.00,Wunderground v.1.15,2013-01-25 04:58:00,
2013-01-24 23:04:00,24.4,5.6,30.41,East,98,0.0,0.0,44,0.00,,,0.00,Wunderground v.1.15,2013-01-25 05:04:00,
2013-01-24 23:13:00,24.4,6.1,30.40,East,92,0.0,0.0,45,0.00,,,0.00,Wunderground v.1.15,2013-01-25 05:13:00,
2013-01-24 23:23:00,24.2,5.9,30.39,East,96,0.0,0.0,45,0.00,,,0.00,Wunderground v.1.15,2013-01-25 05:23:00,
2013-01-24 23:28:00,24.2,5.4,30.41,East,98,0.0,0.0,44,0.00,,,0.00,Wunderground v.1.15,2013-01-25 05:28:00,
2013-01-24 23:33:00,24.4,6.1,30.40,East,94,0.0,0.0,45,0.00,,,0.00,Wunderground v.1.15,2013-01-25 05:33:00,
2013-01-24 23:48:00,24.4,6.1,30.38,ESE,106,0.0,0.0,45,0.00,,,0.00,Wunderground v.1.15,2013-01-25 05:48:00,
2013-01-24 23:53:00,24.4,5.6,30.36,ESE,103,0.0,0.0,44,0.00,,,0.00,Wunderground v.1.15,2013-01-25 05:53:00,